createdAt,value
2023-05-10T00:01:38.746Z,7.25
2023-05-10T00:04:05.813Z,7.50
2023-05-10T00:06:32.729Z,6.47
2023-05-10T00:08:59.392Z,5.55
2023-05-10T00:11:26.050Z,7.45
2023-05-10T00:13:52.823Z,5.60
2023-05-10T00:16:19.578Z,4.63
2023-05-10T00:18:46.287Z,6.45
2023-05-10T00:21:13.085Z,8.05
2023-05-10T00:23:39.865Z,7.50
2023-05-10T00:26:06.542Z,6.78
2023-05-10T00:28:33.227Z,5.90
2023-05-10T00:31:00.094Z,7.18
2023-05-10T00:33:26.910Z,6.00
2023-05-10T00:35:53.667Z,8.43
2023-05-10T00:38:20.414Z,7.38
2023-05-10T00:40:47.131Z,7.30
2023-05-10T00:43:22.152Z,6.00
2023-05-10T00:45:49.128Z,7.13
2023-05-10T00:48:15.908Z,6.30
2023-05-10T00:50:43.530Z,6.88
2023-05-10T00:53:10.304Z,8.27
2023-05-10T00:55:38.394Z,7.47
2023-05-10T00:58:05.720Z,10.80
2023-05-10T01:00:33.895Z,7.82
2023-05-10T01:03:00.963Z,7.10
2023-05-10T01:05:28.498Z,7.22
2023-05-10T01:07:55.186Z,8.85
2023-05-10T01:10:22.057Z,6.85
2023-05-10T01:12:49.238Z,8.82
2023-05-10T01:15:17.214Z,7.63
2023-05-10T01:17:46.533Z,4.47
2023-05-10T01:20:13.684Z,6.93
2023-05-10T01:22:55.554Z,6.90
2023-05-10T01:25:34.313Z,9.63
2023-05-10T01:28:09.256Z,8.60
2023-05-10T01:31:19.755Z,8.55
2023-05-10T01:34:09.022Z,7.57
2023-05-10T01:36:52.414Z,8.48
2023-05-10T01:39:54.407Z,6.97
2023-05-10T01:42:34.670Z,6.22
2023-05-10T01:45:08.947Z,5.82
2023-05-10T01:48:04.116Z,5.22
2023-05-10T01:50:35.524Z,5.57
2023-05-10T01:53:08.464Z,4.80
2023-05-10T01:55:42.732Z,7.43
2023-05-10T01:58:16.660Z,5.38
2023-05-10T02:05:09.544Z,7.65
2023-05-10T02:07:37.757Z,5.93
2023-05-10T02:10:09.443Z,5.32
2023-05-10T02:15:10.553Z,4.45
2023-05-10T02:17:39.016Z,5.72
2023-05-10T02:20:09.904Z,5.18
2023-05-10T02:22:37.027Z,4.77
2023-05-10T02:25:04.950Z,5.78
2023-05-10T02:27:31.914Z,3.85
2023-05-10T02:29:59.073Z,6.70
2023-05-10T02:32:27.996Z,7.85
2023-05-10T02:34:55.811Z,5.18
2023-05-10T02:37:23.036Z,5.35
2023-05-10T02:39:55.282Z,5.18
2023-05-10T02:42:28.908Z,5.45
2023-05-10T02:45:01.594Z,5.38
2023-05-10T02:47:29.897Z,5.18
2023-05-10T02:49:56.742Z,4.15
2023-05-10T02:52:27.443Z,5.20
2023-05-10T02:54:57.290Z,3.27
2023-05-10T02:57:31.320Z,5.97
2023-05-10T02:59:58.101Z,4.15
2023-05-10T03:02:24.976Z,4.38
2023-05-10T03:04:52.014Z,4.07
2023-05-10T03:07:22.248Z,3.42
2023-05-10T03:09:50.523Z,4.00
2023-05-10T03:12:42.297Z,4.82
2023-05-10T03:15:30.064Z,4.05
2023-05-10T03:18:13.166Z,6.15
2023-05-10T03:20:44.303Z,4.20
2023-05-10T03:23:19.108Z,4.53
2023-05-10T03:25:49.185Z,5.20
2023-05-10T03:28:17.649Z,4.30
2023-05-10T03:30:44.968Z,5.55
2023-05-10T03:33:14.147Z,4.95
2023-05-10T03:35:46.578Z,5.20
2023-05-10T03:38:14.278Z,5.70
2023-05-10T03:40:41.288Z,4.65
2023-05-10T03:43:08.735Z,5.00
2023-05-10T03:45:35.709Z,5.78
2023-05-10T03:48:03.250Z,5.10
2023-05-10T03:50:30.253Z,5.72
2023-05-10T03:52:57.071Z,6.15
2023-05-10T03:55:24.400Z,5.95
2023-05-10T03:57:51.471Z,9.73
2023-05-10T04:00:18.464Z,6.10
2023-05-10T04:02:48.313Z,6.82
2023-05-10T04:05:19.109Z,9.65
2023-05-10T04:07:45.943Z,7.22
2023-05-10T04:10:13.023Z,7.72
2023-05-10T04:12:39.739Z,10.55
2023-05-10T04:15:07.755Z,7.80
2023-05-10T04:17:34.801Z,8.90
2023-05-10T04:20:01.549Z,11.90
2023-05-10T04:22:30.009Z,11.73
2023-05-10T04:24:56.780Z,7.22
2023-05-10T04:27:23.481Z,10.32
2023-05-10T04:29:50.417Z,9.38
2023-05-10T04:32:18.205Z,13.40
2023-05-10T04:34:45.395Z,10.75
2023-05-10T04:37:12.149Z,11.70
2023-05-10T04:39:41.439Z,11.93
2023-05-10T04:42:09.146Z,13.10
2023-05-10T04:44:36.363Z,11.60
2023-05-10T04:47:03.902Z,16.77
2023-05-10T04:49:31.021Z,12.48
2023-05-10T04:51:57.856Z,12.75
2023-05-10T04:54:24.886Z,17.27
2023-05-10T04:56:51.596Z,10.38
2023-05-10T04:59:18.351Z,15.88
2023-05-10T05:01:45.243Z,20.50
2023-05-10T05:04:15.492Z,12.05
2023-05-10T05:06:42.241Z,11.55
2023-05-10T05:09:08.943Z,23.65
2023-05-10T05:11:35.793Z,11.52
2023-05-10T05:14:02.452Z,12.73
2023-05-10T05:16:31.938Z,18.60
2023-05-10T05:18:58.708Z,11.77
2023-05-10T05:21:27.746Z,12.20
2023-05-10T05:23:56.816Z,13.63
2023-05-10T05:26:23.508Z,13.07
2023-05-10T05:28:52.740Z,10.93
2023-05-10T05:31:19.983Z,13.93
2023-05-10T05:33:46.820Z,11.00
2023-05-10T05:36:13.643Z,11.60
2023-05-10T05:38:40.425Z,10.07
2023-05-10T05:41:07.122Z,10.80
2023-05-10T05:43:35.567Z,17.73
2023-05-10T05:46:04.520Z,12.73
2023-05-10T05:48:32.226Z,12.25
2023-05-10T05:50:59.195Z,11.02
2023-05-10T05:53:26.005Z,10.68
2023-05-10T05:55:58.167Z,8.75
2023-05-10T05:58:26.085Z,13.18
2023-05-10T06:00:53.580Z,10.98
2023-05-10T06:03:21.111Z,12.07
2023-05-10T06:05:48.043Z,10.98
2023-05-10T06:08:14.784Z,12.15
2023-05-10T06:10:41.516Z,9.55
2023-05-10T06:13:08.262Z,11.32
2023-05-10T06:15:35.557Z,16.52
2023-05-10T06:18:02.393Z,13.40
2023-05-10T06:20:29.174Z,14.15
2023-05-10T06:22:55.971Z,10.73
2023-05-10T06:25:22.728Z,12.18
2023-05-10T06:27:52.870Z,8.90
2023-05-10T06:30:20.370Z,11.53
2023-05-10T06:32:47.285Z,12.23
2023-05-10T06:35:14.242Z,7.30
2023-05-10T06:37:41.025Z,10.20
2023-05-10T06:40:08.586Z,12.00
2023-05-10T06:42:35.389Z,8.45
2023-05-10T06:45:03.378Z,8.02
2023-05-10T06:47:30.151Z,13.60
2023-05-10T06:49:57.110Z,12.43
2023-05-10T06:52:24.379Z,12.48
2023-05-10T06:54:51.380Z,12.55
2023-05-10T06:57:30.569Z,14.45
2023-05-10T07:00:02.280Z,11.68
2023-05-10T07:02:29.252Z,10.70
2023-05-10T07:04:56.212Z,12.52
2023-05-10T07:07:22.931Z,12.45
2023-05-10T07:09:50.853Z,7.50
2023-05-10T07:12:17.761Z,12.73
2023-05-10T07:14:44.497Z,10.80
2023-05-10T07:17:11.332Z,10.30
2023-05-10T07:19:38.096Z,15.45
2023-05-10T07:22:04.793Z,13.43
2023-05-10T07:24:32.304Z,8.57
2023-05-10T07:26:59.099Z,13.07
2023-05-10T07:29:26.002Z,11.95
2023-05-10T07:31:52.891Z,12.43
2023-05-10T07:34:19.777Z,12.48
2023-05-10T07:36:46.755Z,13.68
2023-05-10T07:39:18.714Z,10.18
2023-05-10T07:41:51.414Z,11.60
2023-05-10T07:44:20.144Z,11.48
2023-05-10T07:46:48.133Z,13.13
2023-05-10T07:49:17.472Z,19.05
2023-05-10T07:51:44.300Z,21.10
2023-05-10T07:54:11.147Z,25.25
2023-05-10T07:56:37.914Z,19.25
2023-05-10T07:59:06.019Z,18.60
2023-05-10T08:01:34.870Z,18.65
2023-05-10T08:04:02.812Z,29.65
2023-05-10T08:06:30.878Z,27.20
2023-05-10T08:08:57.742Z,21.52
2023-05-10T08:11:24.515Z,26.75
2023-05-10T08:13:51.960Z,27.52
2023-05-10T08:16:18.838Z,22.23
2023-05-10T08:18:47.907Z,26.40
2023-05-10T08:21:15.773Z,21.98
2023-05-10T08:23:44.582Z,34.13
2023-05-10T08:26:11.681Z,26.23
2023-05-10T08:28:38.697Z,25.35
2023-05-10T08:31:06.320Z,36.05
2023-05-10T08:33:33.253Z,20.08
2023-05-10T08:35:59.935Z,30.65
2023-05-10T08:38:26.993Z,29.75
2023-05-10T08:40:59.746Z,30.08
2023-05-10T08:43:30.781Z,22.42
2023-05-10T08:45:57.971Z,27.70
2023-05-10T08:48:26.042Z,23.42
2023-05-10T08:50:57.735Z,18.67
2023-05-10T08:53:28.743Z,16.70
2023-05-10T08:55:56.429Z,24.35
2023-05-10T08:58:23.173Z,19.17
2023-05-10T09:00:52.030Z,27.08
2023-05-10T09:03:19.238Z,21.52
2023-05-10T09:05:46.777Z,24.17
2023-05-10T09:08:15.399Z,20.60
2023-05-10T09:10:44.230Z,13.48
2023-05-10T09:13:16.204Z,15.82
2023-05-10T09:15:45.014Z,17.67
2023-05-10T09:18:12.719Z,15.23
2023-05-10T09:20:39.495Z,14.20
2023-05-10T09:23:06.807Z,20.85
2023-05-10T09:25:38.012Z,17.08
2023-05-10T09:28:08.505Z,19.27
2023-05-10T09:30:38.251Z,10.35
2023-05-10T09:33:05.157Z,15.98
2023-05-10T09:35:33.821Z,16.20
2023-05-10T09:38:06.001Z,18.30
2023-05-10T09:40:32.948Z,16.98
2023-05-10T09:43:08.686Z,11.25
2023-05-10T09:45:38.959Z,16.70
2023-05-10T09:48:06.908Z,14.15
2023-05-10T09:50:35.089Z,10.95
2023-05-10T09:53:05.005Z,11.75
2023-05-10T09:55:45.700Z,13.75
2023-05-10T09:58:17.430Z,15.60
2023-05-10T10:00:46.166Z,12.40
2023-05-10T10:03:17.919Z,13.85
2023-05-10T10:05:49.358Z,15.75
2023-05-10T10:08:16.618Z,13.68
2023-05-10T10:10:47.066Z,17.67
2023-05-10T10:13:14.460Z,15.50
2023-05-10T10:15:41.183Z,17.17
2023-05-10T10:18:09.170Z,14.00
2023-05-10T10:20:38.293Z,13.38
2023-05-10T10:23:07.502Z,13.00
2023-05-10T10:25:34.281Z,19.17
2023-05-10T10:28:22.504Z,13.27
2023-05-10T10:30:51.859Z,16.00
2023-05-10T10:33:37.464Z,13.02
2023-05-10T10:36:04.936Z,11.68
2023-05-10T10:39:02.243Z,15.25
2023-05-10T10:41:51.800Z,13.07
2023-05-10T10:44:37.859Z,11.80
2023-05-10T10:47:19.472Z,13.98
2023-05-10T10:52:38.902Z,13.02
2023-05-10T10:55:13.122Z,13.20
2023-05-10T10:57:42.511Z,14.00
2023-05-10T11:00:41.515Z,13.95
2023-05-10T11:03:08.423Z,13.93
2023-05-10T11:05:45.611Z,13.90
2023-05-10T11:08:28.316Z,12.52
2023-05-10T11:11:09.566Z,13.68
2023-05-10T11:13:47.243Z,12.43
2023-05-10T11:16:25.284Z,13.40
2023-05-10T11:19:04.739Z,14.50
2023-05-10T11:21:33.509Z,15.70
2023-05-10T11:24:06.375Z,17.38
2023-05-10T11:26:36.018Z,12.02
2023-05-10T11:29:04.059Z,14.55
2023-05-10T11:31:30.969Z,14.63
2023-05-10T11:33:59.996Z,17.55
2023-05-10T11:36:34.787Z,13.27
2023-05-10T11:39:01.467Z,12.07
2023-05-10T11:41:30.138Z,11.05
2023-05-10T11:43:58.657Z,9.25
2023-05-10T11:46:27.843Z,16.70
2023-05-10T11:49:01.504Z,18.40
2023-05-10T11:51:28.656Z,13.88
2023-05-10T11:53:56.980Z,14.07
2023-05-10T11:56:24.500Z,14.07
2023-05-10T11:58:58.650Z,12.00
2023-05-10T12:01:27.326Z,13.93
2023-05-10T12:03:56.195Z,15.13
2023-05-10T12:06:23.250Z,17.10
2023-05-10T12:08:54.461Z,14.63
2023-05-10T12:11:22.708Z,11.35
2023-05-10T12:13:50.690Z,17.40
2023-05-10T12:16:25.938Z,17.95
2023-05-10T12:18:54.666Z,13.65
2023-05-10T12:21:22.259Z,13.18
2023-05-10T12:23:55.395Z,14.93
2023-05-10T12:26:27.266Z,14.55
2023-05-10T12:28:54.974Z,12.50
2023-05-10T12:31:21.636Z,16.33
2023-05-10T12:33:50.209Z,15.73
2023-05-10T12:36:18.850Z,16.33
2023-05-10T12:38:49.456Z,15.15
2023-05-10T12:41:18.234Z,17.77
2023-05-10T12:43:46.518Z,16.85
2023-05-10T12:46:18.110Z,21.70
2023-05-10T12:48:47.158Z,16.80
2023-05-10T12:51:16.567Z,18.70
2023-05-10T12:53:45.639Z,15.10
2023-05-10T12:56:13.409Z,14.68
2023-05-10T12:58:40.137Z,14.85
2023-05-10T13:01:07.088Z,14.38
2023-05-10T13:03:34.206Z,15.13
2023-05-10T13:06:01.167Z,13.50
2023-05-10T13:08:27.945Z,11.88
2023-05-10T13:10:54.704Z,13.35
2023-05-10T13:13:21.404Z,13.18
2023-05-10T13:15:48.029Z,10.55
2023-05-10T13:18:14.703Z,11.02
2023-05-10T13:20:41.558Z,10.30
2023-05-10T13:23:08.240Z,10.30
2023-05-10T13:25:35.332Z,12.82
2023-05-10T13:28:02.644Z,14.15
2023-05-10T13:30:29.870Z,12.13
2023-05-10T13:32:56.619Z,10.00
2023-05-10T13:35:23.574Z,9.00
2023-05-10T13:37:50.440Z,9.80
2023-05-10T13:40:18.107Z,10.18
2023-05-10T13:42:44.915Z,11.00
2023-05-10T13:45:13.284Z,9.07
2023-05-10T13:47:40.260Z,8.93
2023-05-10T13:50:07.816Z,9.32
2023-05-10T13:52:34.620Z,12.27
2023-05-10T13:55:01.618Z,12.73
2023-05-10T13:57:29.747Z,8.32
2023-05-10T13:59:57.651Z,8.40
2023-05-10T14:02:25.482Z,8.85
2023-05-10T14:04:52.421Z,11.52
2023-05-10T14:07:19.424Z,8.75
2023-05-10T14:09:46.159Z,8.95
2023-05-10T14:12:12.847Z,9.70
2023-05-10T14:14:39.946Z,7.43
2023-05-10T14:17:10.749Z,8.95
2023-05-10T14:19:39.678Z,7.60
2023-05-10T14:22:06.624Z,8.45
2023-05-10T14:24:33.516Z,8.50
2023-05-10T14:27:00.209Z,8.90
2023-05-10T14:29:27.034Z,8.70
2023-05-10T14:31:53.788Z,8.25
2023-05-10T14:34:20.870Z,8.00
2023-05-10T14:36:47.573Z,9.30
2023-05-10T14:39:14.307Z,6.20
2023-05-10T14:41:43.826Z,7.00
2023-05-10T14:44:10.983Z,5.93
2023-05-10T14:46:38.225Z,5.80
2023-05-10T14:49:05.138Z,6.78
2023-05-10T14:51:32.700Z,6.35
2023-05-10T14:53:59.840Z,6.90
2023-05-10T14:56:29.196Z,9.32
2023-05-10T14:58:56.430Z,6.53
2023-05-10T15:01:23.783Z,7.10
2023-05-10T15:03:51.644Z,7.60
2023-05-10T15:06:26.140Z,7.13
2023-05-10T15:08:52.916Z,5.63
2023-05-10T15:11:19.738Z,6.30
2023-05-10T15:13:46.482Z,5.47
2023-05-10T15:16:13.244Z,7.20
2023-05-10T15:18:40.064Z,6.30
2023-05-10T15:21:06.826Z,6.85
2023-05-10T15:23:33.577Z,8.02
2023-05-10T15:26:01.461Z,7.00
2023-05-10T15:28:28.145Z,8.38
2023-05-10T15:30:54.950Z,5.97
2023-05-10T15:33:21.660Z,8.43
2023-05-10T15:35:48.472Z,7.20
2023-05-10T15:38:15.846Z,6.35
2023-05-10T15:40:42.631Z,7.88
2023-05-10T15:43:09.376Z,7.00
2023-05-10T15:45:37.642Z,8.85
2023-05-10T15:48:04.996Z,6.20
2023-05-10T15:50:31.858Z,6.63
2023-05-10T15:52:58.570Z,7.10
2023-05-10T15:55:26.316Z,6.30
2023-05-10T15:57:53.281Z,9.77
2023-05-10T16:00:20.197Z,11.48
2023-05-10T16:02:46.926Z,6.88
2023-05-10T16:05:13.976Z,7.88
2023-05-10T16:07:41.998Z,7.22
2023-05-10T16:10:11.286Z,5.60
2023-05-10T16:12:38.742Z,6.25
2023-05-10T16:15:06.744Z,6.07
2023-05-10T16:17:33.629Z,5.30
2023-05-10T16:20:01.196Z,4.60
2023-05-10T16:22:28.782Z,5.25
2023-05-10T16:24:57.244Z,7.18
2023-05-10T16:27:23.953Z,7.05
2023-05-10T16:29:50.778Z,3.20
2023-05-10T16:32:17.517Z,5.10
2023-05-10T16:34:44.280Z,3.47
2023-05-10T16:37:11.326Z,2.90
2023-05-10T16:39:38.159Z,2.00
2023-05-10T16:42:04.976Z,4.18
2023-05-10T16:44:31.705Z,5.93
2023-05-10T16:46:58.360Z,1.70
2023-05-10T16:49:26.111Z,2.05
2023-05-10T16:51:53.066Z,2.85
2023-05-10T16:54:21.328Z,3.05
2023-05-10T16:56:48.111Z,4.78
2023-05-10T16:59:17.596Z,2.67
2023-05-10T17:01:44.914Z,2.17
2023-05-10T17:04:11.785Z,1.88
2023-05-10T17:06:38.683Z,2.78
2023-05-10T17:09:05.798Z,2.92
2023-05-10T17:11:32.799Z,2.10
2023-05-10T17:14:01.050Z,1.48
2023-05-10T17:16:27.729Z,3.53
2023-05-10T17:18:54.463Z,2.53
2023-05-10T17:21:21.371Z,4.10
2023-05-10T17:23:48.065Z,3.28
2023-05-10T17:26:14.999Z,2.42
2023-05-10T17:28:41.686Z,3.70
2023-05-10T17:31:08.635Z,4.00
2023-05-10T17:33:35.430Z,3.03
2023-05-10T17:36:02.116Z,5.80
2023-05-10T17:38:28.818Z,4.50
2023-05-10T17:40:55.541Z,5.35
2023-05-10T17:43:23.452Z,5.82
2023-05-10T17:45:50.348Z,4.20
2023-05-10T17:48:17.367Z,6.80
2023-05-10T17:50:44.490Z,4.85
2023-05-10T17:53:11.415Z,7.10
2023-05-10T17:55:42.050Z,5.55
2023-05-10T17:58:11.356Z,6.07
2023-05-10T18:00:38.620Z,3.47
2023-05-10T18:03:05.911Z,4.28
2023-05-10T18:05:37.265Z,4.60
2023-05-10T18:08:05.360Z,4.05
2023-05-10T18:10:32.399Z,3.30
2023-05-10T18:12:59.185Z,3.00
2023-05-10T18:15:26.816Z,3.25
2023-05-10T18:17:53.578Z,3.72
2023-05-10T18:20:20.413Z,5.07
2023-05-10T18:22:47.397Z,5.38
2023-05-10T18:25:14.195Z,3.78
2023-05-10T18:27:41.127Z,3.65
2023-05-10T18:30:13.083Z,4.25
2023-05-10T18:32:40.000Z,5.22
2023-05-10T18:35:08.087Z,6.75
2023-05-10T18:37:35.374Z,4.25
2023-05-10T18:40:02.596Z,5.85
2023-05-10T18:42:29.382Z,4.85
2023-05-10T18:44:56.075Z,3.90
2023-05-10T18:47:23.022Z,6.20
2023-05-10T18:49:49.872Z,5.00
2023-05-10T18:52:16.843Z,4.57
2023-05-10T18:54:43.546Z,5.38
2023-05-10T18:57:11.393Z,4.80
2023-05-10T18:59:38.292Z,3.30
2023-05-10T19:02:05.040Z,5.55
2023-05-10T19:04:31.994Z,4.30
2023-05-10T19:06:59.601Z,3.63
2023-05-10T19:09:27.153Z,2.88
2023-05-10T19:11:53.991Z,6.25
2023-05-10T19:14:21.230Z,4.25
2023-05-10T19:16:48.906Z,3.25
2023-05-10T19:19:16.121Z,3.08
2023-05-10T19:21:42.923Z,4.97
2023-05-10T19:24:10.701Z,5.78
2023-05-10T19:26:37.401Z,3.15
2023-05-10T19:29:05.102Z,5.40
2023-05-10T19:31:33.401Z,5.72
2023-05-10T19:34:00.989Z,3.42
2023-05-10T19:36:27.898Z,3.78
2023-05-10T19:38:54.781Z,2.63
2023-05-10T19:41:21.968Z,4.72
2023-05-10T19:43:48.757Z,3.65
2023-05-10T19:46:16.649Z,3.25
2023-05-10T19:48:45.527Z,5.97
2023-05-10T19:51:13.440Z,5.15
2023-05-10T19:53:44.786Z,4.03
2023-05-10T19:56:12.745Z,2.50
2023-05-10T19:58:39.700Z,4.45
2023-05-10T20:01:07.686Z,3.40
2023-05-10T20:03:35.645Z,4.30
2023-05-10T20:06:03.891Z,3.72
2023-05-10T20:08:31.219Z,4.18
2023-05-10T20:10:59.140Z,3.78
2023-05-10T20:13:26.145Z,3.90
2023-05-10T20:15:59.522Z,4.00
2023-05-10T20:18:27.058Z,4.25
2023-05-10T20:20:55.419Z,5.88
2023-05-10T20:23:22.552Z,4.78
2023-05-10T20:25:49.550Z,3.85
2023-05-10T20:28:24.028Z,7.93
2023-05-10T20:30:53.951Z,4.10
2023-05-10T20:33:22.085Z,4.82
2023-05-10T20:35:50.337Z,4.45
2023-05-10T20:38:18.209Z,6.30
2023-05-10T20:40:45.385Z,4.85
2023-05-10T20:43:12.180Z,4.50
2023-05-10T20:45:39.185Z,6.35
2023-05-10T20:48:06.121Z,3.92
2023-05-10T20:50:32.908Z,5.25
2023-05-10T20:53:00.579Z,5.07
2023-05-10T20:55:28.054Z,5.15
2023-05-10T20:57:54.922Z,7.22
2023-05-10T21:00:21.799Z,6.43
2023-05-10T21:02:50.418Z,5.80
2023-05-10T21:05:18.396Z,5.03
2023-05-10T21:07:45.273Z,5.78
2023-05-10T21:10:12.460Z,4.57
2023-05-10T21:12:39.217Z,5.50
2023-05-10T21:15:06.696Z,4.63
2023-05-10T21:17:33.630Z,4.93
2023-05-10T21:20:00.407Z,5.20
2023-05-10T21:22:27.869Z,4.82
2023-05-10T21:24:54.644Z,5.40
2023-05-10T21:27:21.346Z,6.03
2023-05-10T21:29:48.281Z,4.82
2023-05-10T21:32:15.099Z,5.53
2023-05-10T21:34:41.991Z,6.53
2023-05-10T21:37:08.937Z,3.05
2023-05-10T21:39:35.977Z,4.47
2023-05-10T21:42:03.616Z,6.78
2023-05-10T21:44:32.989Z,7.72
2023-05-10T21:46:59.687Z,5.68
2023-05-10T21:49:26.950Z,7.63
2023-05-10T21:51:53.703Z,5.72
2023-05-10T21:54:20.468Z,6.28
2023-05-10T21:56:47.384Z,4.80
2023-05-10T21:59:16.157Z,5.15
2023-05-10T22:01:43.774Z,7.43
2023-05-10T22:04:10.781Z,6.35
2023-05-10T22:06:37.538Z,6.65
2023-05-10T22:09:05.054Z,6.18
2023-05-10T22:11:31.799Z,9.70
2023-05-10T22:13:58.957Z,7.68
2023-05-10T22:16:25.734Z,5.38
2023-05-10T22:18:54.393Z,5.47
2023-05-10T22:21:21.426Z,8.98
2023-05-10T22:23:48.158Z,6.80
2023-05-10T22:26:14.839Z,7.03
2023-05-10T22:28:41.622Z,7.95
2023-05-10T22:31:12.234Z,8.73
2023-05-10T22:33:39.305Z,6.70
2023-05-10T22:36:06.676Z,6.03
2023-05-10T22:38:33.413Z,7.35
2023-05-10T22:41:00.193Z,7.47
2023-05-10T22:43:27.010Z,8.73
2023-05-10T22:45:54.330Z,7.63
2023-05-10T22:48:21.202Z,5.57
2023-05-10T22:50:47.907Z,6.28
2023-05-10T22:53:14.644Z,6.53
2023-05-10T22:55:41.497Z,5.13
2023-05-10T22:58:09.157Z,5.80
2023-05-10T23:00:35.854Z,6.97
2023-05-10T23:03:02.643Z,9.27
2023-05-10T23:05:29.344Z,9.57
2023-05-10T23:07:56.062Z,7.32
2023-05-10T23:10:22.851Z,6.68
2023-05-10T23:12:49.575Z,7.95
2023-05-10T23:15:16.466Z,6.72
2023-05-10T23:17:43.289Z,6.47
2023-05-10T23:20:11.165Z,6.95
2023-05-10T23:22:37.964Z,8.77
2023-05-10T23:25:05.509Z,7.15
2023-05-10T23:27:32.245Z,8.48
2023-05-10T23:29:59.001Z,7.47
2023-05-10T23:32:25.771Z,9.93
2023-05-10T23:34:53.164Z,12.40
2023-05-10T23:37:19.901Z,10.25
2023-05-10T23:39:46.612Z,8.07
2023-05-10T23:42:13.323Z,8.82
2023-05-10T23:44:40.045Z,12.70
2023-05-10T23:47:07.169Z,10.13
2023-05-10T23:49:33.954Z,7.88
2023-05-10T23:52:00.753Z,11.88
2023-05-10T23:54:27.576Z,10.73
2023-05-10T23:56:54.347Z,12.88
2023-05-10T23:59:21.074Z,10.80
